createdAt,value
2019-05-03T11:33:15.759Z,65.42
2019-05-03T11:38:19.012Z,63.97
2019-05-03T11:43:22.071Z,67.19
2019-05-03T11:48:25.274Z,66.82
2019-05-03T11:53:26.363Z,67.71
2019-05-03T11:58:27.450Z,68.02
2019-05-03T12:03:39.460Z,71.10
2019-05-03T12:08:40.618Z,73.38
2019-05-03T12:13:45.456Z,75.55
2019-05-03T12:18:53.366Z,73.44
2019-05-03T12:23:50.092Z,75.50
2019-05-03T12:28:51.530Z,73.60
2019-05-03T12:33:54.900Z,73.64
2019-05-03T12:38:55.410Z,72.98
2019-05-03T12:43:56.357Z,74.96
2019-05-03T12:48:57.344Z,73.59
2019-05-03T12:53:58.328Z,74.65
2019-05-03T12:59:10.125Z,73.12
2019-05-03T13:04:15.165Z,70.88
2019-05-03T13:09:16.083Z,71.40
2019-05-03T13:14:17.096Z,70.69
2019-05-03T13:19:17.952Z,69.95
2019-05-03T13:24:23.101Z,70.10
2019-05-03T13:29:21.732Z,70.55
2019-05-03T13:34:24.712Z,65.72
2019-05-03T13:39:26.506Z,68.25
2019-05-03T13:44:27.661Z,67.81
2019-05-03T13:49:28.552Z,65.81
2019-05-03T13:54:29.433Z,63.97
2019-05-03T13:59:30.288Z,62.78
2019-05-03T14:04:31.164Z,59.34
2019-05-03T14:09:34.587Z,59.84
2019-05-03T14:14:55.970Z,59.66
2019-05-03T14:20:09.897Z,58.87
2019-05-03T14:25:10.972Z,56.04
2019-05-03T14:30:14.526Z,57.98
2019-05-03T14:35:16.308Z,58.71
2019-05-03T14:40:17.603Z,60.77
2019-05-03T14:45:19.020Z,61.30
2019-05-03T14:50:21.252Z,61.37
2019-05-03T14:55:25.204Z,62.38
2019-05-03T15:00:38.177Z,63.42
2019-05-03T15:05:39.276Z,63.47
2019-05-03T15:10:40.161Z,63.25
2019-05-03T15:15:41.141Z,64.04
2019-05-03T15:20:42.839Z,62.10
2019-05-03T15:25:45.211Z,62.52
2019-05-03T15:30:46.351Z,62.51
2019-05-03T15:35:47.251Z,64.11
2019-05-03T15:40:48.210Z,65.84
2019-05-03T15:45:51.014Z,66.43
2019-05-03T15:50:51.873Z,67.72
2019-05-03T15:55:54.528Z,67.84
2019-05-03T16:00:56.128Z,68.58
2019-05-03T16:05:57.066Z,68.42
2019-05-03T16:10:57.959Z,69.24
2019-05-03T16:15:58.830Z,68.96
2019-05-03T16:20:59.721Z,68.25
2019-05-03T16:26:00.707Z,68.58
2019-05-03T16:31:09.432Z,68.66
2019-05-03T16:36:10.320Z,67.95
2019-05-03T16:41:11.184Z,68.50
2019-05-03T16:46:14.408Z,68.29
2019-05-03T16:51:17.304Z,68.44
2019-05-03T16:56:17.974Z,68.68
2019-05-03T17:01:18.950Z,69.17
2019-05-03T17:06:26.394Z,69.77
2019-05-03T17:11:27.619Z,69.50
2019-05-03T17:16:28.496Z,69.65
2019-05-03T17:21:29.380Z,69.60
2019-05-03T17:26:30.276Z,69.87
2019-05-03T17:31:31.156Z,69.50
2019-05-03T17:36:32.051Z,69.18
2019-05-03T17:41:47.118Z,69.26
2019-05-03T17:46:50.680Z,69.54
2019-05-03T17:51:57.681Z,69.91
2019-05-03T17:57:17.718Z,70.88
2019-05-03T18:02:27.372Z,71.08
2019-05-03T18:07:34.915Z,71.35
2019-05-03T18:12:36.567Z,71.33
2019-05-03T18:17:38.952Z,71.65
2019-05-03T18:22:40.386Z,72.22
2019-05-03T18:27:42.321Z,71.75
2019-05-03T18:32:45.166Z,72.21
2019-05-03T18:37:48.064Z,72.62
2019-05-03T18:43:05.255Z,72.32
2019-05-03T18:48:06.143Z,72.34
2019-05-03T18:53:07.472Z,72.03
2019-05-03T18:58:08.357Z,72.13
2019-05-03T19:03:11.003Z,72.37
2019-05-03T19:08:30.440Z,72.32
2019-05-03T19:13:33.340Z,72.61
2019-05-03T19:18:36.220Z,71.90
2019-05-03T19:23:37.208Z,72.26
2019-05-03T19:28:38.093Z,72.69
2019-05-03T19:33:38.959Z,72.55
2019-05-03T19:38:39.840Z,73.40
2019-05-03T19:43:40.712Z,73.61
2019-05-03T19:48:41.619Z,73.64
2019-05-03T19:53:47.427Z,73.16
2019-05-03T19:58:48.832Z,73.79
2019-05-03T20:03:54.607Z,75.68
2019-05-03T20:09:03.163Z,74.85
2019-05-03T20:14:04.749Z,75.30
2019-05-03T20:19:17.850Z,74.34
2019-05-03T20:24:08.672Z,76.04
2019-05-03T20:29:09.567Z,74.93
2019-05-03T20:34:10.443Z,74.93
2019-05-03T20:39:11.319Z,75.27
2019-05-03T20:44:24.734Z,75.63
2019-05-03T20:49:25.576Z,75.48
2019-05-03T20:54:26.448Z,74.38
2019-05-03T20:59:27.428Z,74.75
2019-05-03T21:04:28.324Z,75.51
2019-05-03T21:09:29.184Z,75.55
2019-05-03T21:14:30.060Z,74.74
2019-05-03T21:19:36.317Z,74.87
2019-05-03T21:24:47.884Z,77.50
2019-05-03T21:29:50.675Z,78.19
2019-05-03T21:34:51.564Z,78.19
2019-05-03T21:39:52.435Z,77.15
2019-05-03T21:44:55.359Z,76.95
2019-05-03T21:49:58.018Z,77.29
2019-05-03T21:54:59.332Z,76.66
2019-05-03T22:00:00.913Z,76.66
2019-05-03T22:05:03.104Z,77.55
2019-05-03T22:10:05.521Z,77.11
2019-05-03T22:15:20.761Z,77.09
2019-05-03T22:20:41.849Z,77.59
2019-05-03T22:25:43.831Z,77.59
2019-05-03T22:30:45.334Z,76.81
2019-05-03T22:35:46.436Z,77.17
2019-05-03T22:40:47.313Z,76.75
2019-05-03T22:45:48.283Z,77.51
2019-05-03T22:50:49.179Z,78.51
2019-05-03T22:55:50.276Z,77.92
2019-05-03T23:00:51.168Z,76.68
2019-05-03T23:05:52.421Z,76.68
2019-05-03T23:10:54.734Z,76.72
2019-05-03T23:15:55.816Z,76.72
2019-05-03T23:20:58.611Z,78.45
2019-05-03T23:25:59.487Z,77.97
